createdAt,value
2018-02-14T00:01:08.684Z,5.90
2018-02-14T00:03:37.291Z,5.63
2018-02-14T00:06:04.849Z,5.63
2018-02-14T00:08:32.407Z,5.87
2018-02-14T00:11:01.045Z,5.60
2018-02-14T00:13:29.427Z,5.63
2018-02-14T00:15:59.549Z,6.00
2018-02-14T00:18:27.905Z,5.70
2018-02-14T00:20:55.474Z,5.23
2018-02-14T00:23:23.028Z,6.03
2018-02-14T00:25:50.616Z,6.00
2018-02-14T00:28:18.176Z,5.47
2018-02-14T00:30:45.774Z,6.03
2018-02-14T00:33:13.367Z,5.63
2018-02-14T00:35:40.955Z,6.07
2018-02-14T00:38:08.535Z,5.47
2018-02-14T00:40:36.111Z,6.00
2018-02-14T00:43:04.503Z,5.30
2018-02-14T00:45:32.877Z,5.80
2018-02-14T00:48:00.473Z,5.80
2018-02-14T00:50:28.039Z,5.60
2018-02-14T00:52:55.599Z,5.53
2018-02-14T00:55:23.175Z,5.83
2018-02-14T00:57:50.758Z,5.80
2018-02-14T01:00:18.363Z,5.10
2018-02-14T01:02:45.975Z,5.60
2018-02-14T01:05:14.399Z,6.03
2018-02-14T01:07:41.973Z,6.37
2018-02-14T01:10:09.566Z,5.83
2018-02-14T01:12:37.894Z,5.77
2018-02-14T01:15:05.478Z,5.87
2018-02-14T01:17:33.080Z,5.50
2018-02-14T01:20:08.950Z,5.97
2018-02-14T01:22:36.548Z,5.70
2018-02-14T01:25:04.114Z,6.47
2018-02-14T01:27:31.664Z,5.57
2018-02-14T01:29:59.249Z,5.70
2018-02-14T01:32:26.829Z,5.53
2018-02-14T01:34:54.416Z,5.80
2018-02-14T01:37:22.762Z,5.87
2018-02-14T01:39:50.343Z,6.10
2018-02-14T01:42:17.959Z,5.33
2018-02-14T01:44:45.549Z,5.97
2018-02-14T01:47:13.130Z,5.87
2018-02-14T01:49:40.765Z,5.97
2018-02-14T01:52:08.348Z,5.60
2018-02-14T01:54:35.936Z,6.00
2018-02-14T01:57:03.500Z,5.80
2018-02-14T01:59:31.078Z,5.67
2018-02-14T02:01:59.482Z,5.67
2018-02-14T02:04:27.084Z,6.00
2018-02-14T02:06:54.642Z,6.27
2018-02-14T02:09:22.220Z,5.80
2018-02-14T02:11:49.830Z,5.57
2018-02-14T02:14:18.184Z,7.17
2018-02-14T02:16:46.606Z,5.87
2018-02-14T02:19:14.223Z,5.70
2018-02-14T02:21:41.801Z,6.00
2018-02-14T02:24:10.172Z,5.70
2018-02-14T02:26:37.792Z,5.67
2018-02-14T02:29:05.372Z,6.07
2018-02-14T02:31:32.971Z,5.37
2018-02-14T02:34:00.580Z,6.33
2018-02-14T02:36:28.175Z,5.90
2018-02-14T02:38:55.739Z,5.70
2018-02-14T02:41:23.322Z,6.00
2018-02-14T02:43:50.932Z,6.20
2018-02-14T02:46:18.504Z,6.23
2018-02-14T02:48:46.845Z,7.00
2018-02-14T02:51:14.460Z,6.90
2018-02-14T02:53:42.046Z,6.77
2018-02-14T02:56:09.622Z,6.50
2018-02-14T02:58:37.206Z,7.33
2018-02-14T03:01:04.833Z,6.23
2018-02-14T03:03:33.602Z,6.80
2018-02-14T03:06:01.955Z,6.23
2018-02-14T03:08:29.533Z,6.33
2018-02-14T03:10:57.127Z,6.33
2018-02-14T03:13:24.699Z,6.20
2018-02-14T03:15:52.741Z,5.97
2018-02-14T03:18:20.357Z,6.80
2018-02-14T03:20:47.911Z,6.40
2018-02-14T03:23:15.533Z,6.63
2018-02-14T03:25:43.130Z,6.63
2018-02-14T03:28:10.746Z,6.70
2018-02-14T03:30:38.335Z,6.50
2018-02-14T03:33:06.688Z,6.90
2018-02-14T03:35:34.266Z,6.40
2018-02-14T03:38:01.841Z,6.80
2018-02-14T03:40:30.220Z,6.60
2018-02-14T03:42:57.867Z,6.73
2018-02-14T03:45:25.437Z,6.57
2018-02-14T03:47:53.040Z,6.70
2018-02-14T03:50:21.384Z,6.67
2018-02-14T03:52:48.961Z,7.03
2018-02-14T03:55:16.567Z,7.60
2018-02-14T03:57:44.211Z,6.73
2018-02-14T04:00:12.553Z,6.33
2018-02-14T04:02:40.145Z,7.27
2018-02-14T04:05:07.768Z,6.90
2018-02-14T04:07:35.358Z,6.67
2018-02-14T04:10:02.942Z,6.80
2018-02-14T04:12:31.304Z,7.17
2018-02-14T04:14:58.870Z,7.50
2018-02-14T04:17:26.476Z,6.90
2018-02-14T04:19:54.130Z,7.20
2018-02-14T04:22:21.714Z,7.17
2018-02-14T04:24:49.326Z,7.40
2018-02-14T04:27:16.926Z,7.50
2018-02-14T04:29:45.262Z,7.03
2018-02-14T04:32:12.871Z,7.37
2018-02-14T04:34:41.245Z,7.70
2018-02-14T04:37:08.839Z,7.30
2018-02-14T04:39:36.441Z,7.10
2018-02-14T04:42:04.071Z,8.17
2018-02-14T04:44:31.643Z,7.87
2018-02-14T04:46:59.240Z,7.53
2018-02-14T04:49:26.833Z,7.60
2018-02-14T04:51:54.506Z,7.53
2018-02-14T04:54:22.088Z,7.87
2018-02-14T04:56:50.434Z,7.53
2018-02-14T04:59:18.018Z,7.93
2018-02-14T05:01:46.392Z,7.83
2018-02-14T05:04:13.972Z,8.40
2018-02-14T05:06:41.583Z,7.70
2018-02-14T05:09:09.190Z,7.83
2018-02-14T05:11:36.797Z,7.90
2018-02-14T05:14:04.385Z,8.10
2018-02-14T05:16:31.980Z,8.03
2018-02-14T05:18:59.577Z,7.87
2018-02-14T05:21:28.607Z,8.23
2018-02-14T05:23:56.189Z,8.63
2018-02-14T05:26:23.787Z,8.00
2018-02-14T05:28:52.133Z,8.07
2018-02-14T05:31:19.680Z,8.07
2018-02-14T05:33:47.244Z,8.37
2018-02-14T05:36:14.816Z,8.47
2018-02-14T05:38:42.398Z,7.80
2018-02-14T05:41:10.003Z,8.40
2018-02-14T05:43:38.338Z,8.47
2018-02-14T05:46:05.902Z,8.20
2018-02-14T05:48:33.524Z,8.03
2018-02-14T05:51:01.885Z,8.83
2018-02-14T05:53:29.596Z,8.47
2018-02-14T05:55:57.223Z,8.63
2018-02-14T05:58:24.812Z,8.03
2018-02-14T06:00:52.403Z,8.07
2018-02-14T06:03:20.024Z,8.80
2018-02-14T06:05:47.697Z,8.70
2018-02-14T06:08:16.045Z,8.90
2018-02-14T06:10:43.629Z,8.93
2018-02-14T06:13:11.224Z,8.93
2018-02-14T06:15:38.797Z,8.90
2018-02-14T06:18:06.406Z,9.23
2018-02-14T06:20:33.986Z,9.83
2018-02-14T06:23:01.548Z,10.00
2018-02-14T06:25:29.144Z,9.80
2018-02-14T06:27:57.488Z,9.90
2018-02-14T06:30:25.050Z,10.03
2018-02-14T06:32:52.650Z,9.67
2018-02-14T06:35:20.226Z,10.20
2018-02-14T06:37:48.540Z,9.43
2018-02-14T06:40:16.127Z,9.83
2018-02-14T06:42:43.719Z,10.47
2018-02-14T06:45:12.076Z,10.63
2018-02-14T06:47:39.702Z,10.70
2018-02-14T06:50:07.310Z,9.97
2018-02-14T06:52:34.905Z,9.97
2018-02-14T06:55:03.272Z,10.07
2018-02-14T06:57:31.656Z,10.43
2018-02-14T06:59:59.222Z,10.33
2018-02-14T07:02:27.580Z,10.27
2018-02-14T07:04:55.163Z,10.40
2018-02-14T07:07:22.732Z,10.57
2018-02-14T07:09:51.642Z,10.23
2018-02-14T07:12:19.991Z,10.57
2018-02-14T07:14:47.629Z,11.30
2018-02-14T07:17:15.253Z,10.77
2018-02-14T07:19:43.593Z,10.50
2018-02-14T07:22:11.179Z,11.53
2018-02-14T07:24:38.861Z,11.70
2018-02-14T07:27:06.449Z,11.67
2018-02-14T07:29:34.769Z,11.37
2018-02-14T07:32:02.370Z,11.03
2018-02-14T07:34:29.959Z,10.70
2018-02-14T07:36:57.558Z,10.97
2018-02-14T07:39:25.195Z,11.97
2018-02-14T07:41:52.773Z,10.50
2018-02-14T07:44:20.360Z,11.50
2018-02-14T07:46:47.972Z,10.37
2018-02-14T07:49:16.318Z,11.10
2018-02-14T07:51:43.915Z,11.40
2018-02-14T07:54:12.313Z,10.83
2018-02-14T07:56:39.892Z,10.80
2018-02-14T07:59:08.229Z,10.97
2018-02-14T08:01:35.873Z,11.03
2018-02-14T08:04:03.475Z,11.20
2018-02-14T08:06:31.727Z,10.60
2018-02-14T08:08:59.343Z,10.83
2018-02-14T08:11:26.920Z,11.17
2018-02-14T08:13:54.495Z,10.63
2018-02-14T08:16:22.201Z,10.87
2018-02-14T08:18:49.786Z,12.50
2018-02-14T08:21:17.388Z,11.50
2018-02-14T08:23:45.004Z,11.50
2018-02-14T08:26:12.596Z,11.47
2018-02-14T08:28:40.925Z,11.70
2018-02-14T08:31:08.560Z,11.50
2018-02-14T08:33:36.197Z,11.33
2018-02-14T08:36:04.542Z,11.60
2018-02-14T08:38:33.065Z,12.00
2018-02-14T08:41:00.685Z,11.33
2018-02-14T08:43:28.254Z,12.20
2018-02-14T08:45:55.907Z,10.93
2018-02-14T08:48:23.471Z,11.00
2018-02-14T08:50:51.063Z,11.60
2018-02-14T08:53:18.651Z,11.23
2018-02-14T08:55:46.993Z,11.30
2018-02-14T08:58:14.589Z,11.60
2018-02-14T09:00:42.213Z,10.53
2018-02-14T09:03:09.780Z,10.57
2018-02-14T09:05:37.355Z,11.87
2018-02-14T09:08:04.993Z,11.20
2018-02-14T09:10:33.328Z,11.93
2018-02-14T09:13:00.920Z,11.50
2018-02-14T09:15:29.278Z,11.23
2018-02-14T09:17:56.890Z,11.67
2018-02-14T09:20:25.334Z,12.17
2018-02-14T09:22:52.980Z,11.67
2018-02-14T09:25:20.556Z,11.70
2018-02-14T09:27:48.155Z,11.53
2018-02-14T09:30:15.779Z,11.47
2018-02-14T09:32:43.399Z,11.00
2018-02-14T09:35:11.009Z,11.13
2018-02-14T09:37:38.609Z,11.30
2018-02-14T09:40:07.034Z,11.77
2018-02-14T09:42:34.617Z,10.87
2018-02-14T09:45:03.288Z,11.40
2018-02-14T09:47:30.897Z,10.90
2018-02-14T09:49:58.477Z,10.67
2018-02-14T09:52:26.826Z,11.17
2018-02-14T09:54:54.414Z,10.97
2018-02-14T09:57:22.786Z,10.87
2018-02-14T09:59:50.381Z,10.77
2018-02-14T10:02:18.711Z,10.87
2018-02-14T10:04:46.327Z,10.83
2018-02-14T10:07:13.970Z,10.80
2018-02-14T10:09:41.563Z,11.00
2018-02-14T10:12:09.983Z,10.80
2018-02-14T10:14:37.594Z,10.73
2018-02-14T10:17:07.071Z,10.67
2018-02-14T10:19:34.689Z,10.83
2018-02-14T10:22:02.291Z,10.60
2018-02-14T10:24:29.927Z,11.63
2018-02-14T10:26:57.537Z,11.77
2018-02-14T10:29:25.174Z,10.60
2018-02-14T10:31:53.504Z,11.07
2018-02-14T10:34:22.032Z,10.87
2018-02-14T10:36:49.675Z,10.70
2018-02-14T10:39:18.024Z,10.60
2018-02-14T10:41:45.630Z,10.30
2018-02-14T10:44:15.038Z,9.97
2018-02-14T10:46:43.242Z,10.60
2018-02-14T10:49:11.496Z,9.53
2018-02-14T10:51:39.122Z,9.60
2018-02-14T10:54:08.315Z,10.77
2018-02-14T10:56:35.880Z,10.57
2018-02-14T10:59:03.489Z,10.70
2018-02-14T11:01:37.469Z,10.93
2018-02-14T11:04:10.703Z,10.17
2018-02-14T11:06:38.333Z,10.23
2018-02-14T11:09:05.951Z,11.07
2018-02-14T11:11:33.731Z,10.33
2018-02-14T11:14:01.521Z,9.80
2018-02-14T11:16:29.158Z,11.03
2018-02-14T11:18:56.733Z,9.93
2018-02-14T11:21:24.346Z,10.13
2018-02-14T11:23:52.774Z,10.73
2018-02-14T11:26:20.406Z,11.20
2018-02-14T11:28:49.662Z,11.00
2018-02-14T11:31:17.230Z,10.07
2018-02-14T11:33:44.834Z,9.97
2018-02-14T11:36:13.190Z,11.40
2018-02-14T11:38:40.800Z,10.70
2018-02-14T11:41:08.360Z,10.70
2018-02-14T11:43:35.967Z,10.10
2018-02-14T11:46:03.527Z,9.57
2018-02-14T11:48:31.212Z,9.57
2018-02-14T11:50:58.867Z,9.00
2018-02-14T11:53:26.519Z,9.30
2018-02-14T11:55:54.287Z,10.27
2018-02-14T11:58:21.963Z,9.60
2018-02-14T12:00:50.542Z,9.50
2018-02-14T12:03:18.215Z,9.60
2018-02-14T12:05:45.843Z,9.37
2018-02-14T12:08:13.453Z,8.50
2018-02-14T12:10:41.058Z,8.50
2018-02-14T12:13:09.493Z,7.97
2018-02-14T12:15:37.230Z,7.63
2018-02-14T12:18:04.824Z,8.03
2018-02-14T12:20:32.435Z,7.17
2018-02-14T12:23:00.794Z,7.63
2018-02-14T12:25:29.196Z,7.27
2018-02-14T12:27:56.844Z,7.97
2018-02-14T12:30:24.489Z,9.07
2018-02-14T12:32:52.100Z,7.13
2018-02-14T12:35:20.480Z,7.23
2018-02-14T12:37:48.845Z,6.77
2018-02-14T12:40:16.539Z,7.53
2018-02-14T12:42:44.183Z,6.80
2018-02-14T12:45:11.832Z,6.43
2018-02-14T12:47:39.398Z,9.37
2018-02-14T12:50:06.993Z,6.90
2018-02-14T12:52:35.462Z,6.90
2018-02-14T12:55:03.088Z,6.57
2018-02-14T12:57:30.700Z,6.97
2018-02-14T12:59:58.302Z,7.20
2018-02-14T13:02:26.694Z,7.60
2018-02-14T13:04:54.338Z,7.63
2018-02-14T13:07:22.762Z,7.93
2018-02-14T13:09:50.353Z,7.43
2018-02-14T13:12:17.996Z,7.97
2018-02-14T13:14:46.572Z,7.47
2018-02-14T13:17:15.415Z,7.40
2018-02-14T13:19:43.037Z,7.37
2018-02-14T13:22:10.659Z,7.80
2018-02-14T13:24:39.052Z,7.37
2018-02-14T13:27:06.685Z,8.07
2018-02-14T13:29:34.899Z,7.60
2018-02-14T13:32:02.527Z,8.13
2018-02-14T13:34:30.158Z,8.07
2018-02-14T13:36:57.869Z,7.77
2018-02-14T13:39:25.463Z,7.60
2018-02-14T13:41:54.276Z,8.00
2018-02-14T13:44:22.212Z,8.17
2018-02-14T13:46:49.914Z,8.40
2018-02-14T13:49:17.567Z,7.97
2018-02-14T13:51:45.214Z,7.73
2018-02-14T13:54:12.861Z,7.60
2018-02-14T13:56:40.813Z,6.87
2018-02-14T13:59:08.425Z,6.40
2018-02-14T14:01:36.059Z,7.23
2018-02-14T14:04:03.699Z,7.33
2018-02-14T14:06:31.311Z,7.57
2018-02-14T14:08:59.712Z,6.60
2018-02-14T14:11:27.344Z,6.53
2018-02-14T14:13:54.989Z,7.00
2018-02-14T14:16:22.683Z,6.40
2018-02-14T14:18:50.291Z,6.57
2018-02-14T14:21:18.069Z,6.10
2018-02-14T14:23:45.982Z,6.57
2018-02-14T14:26:13.620Z,6.40
2018-02-14T14:28:41.237Z,6.20
2018-02-14T14:31:09.163Z,6.40
2018-02-14T14:33:36.811Z,5.97
2018-02-14T14:36:04.415Z,6.37
2018-02-14T14:38:32.069Z,6.07
2018-02-14T14:40:59.827Z,6.20
2018-02-14T14:43:27.450Z,6.13
2018-02-14T14:45:55.828Z,6.20
2018-02-14T14:48:24.202Z,6.10
2018-02-14T14:50:51.799Z,5.73
2018-02-14T14:53:19.402Z,5.83
2018-02-14T14:55:47.027Z,5.83
2018-02-14T14:58:14.732Z,5.63
2018-02-14T15:00:43.112Z,5.90
2018-02-14T15:03:10.756Z,6.23
2018-02-14T15:05:38.386Z,6.87
2018-02-14T15:08:06.743Z,7.60
2018-02-14T15:10:34.344Z,7.57
2018-02-14T15:13:02.720Z,7.50
2018-02-14T15:15:31.129Z,7.17
2018-02-14T15:17:58.759Z,6.67
2018-02-14T15:20:26.365Z,7.73
2018-02-14T15:22:53.987Z,8.23
2018-02-14T15:25:21.617Z,7.73
2018-02-14T15:27:49.198Z,8.27
2018-02-14T15:30:16.809Z,7.80
2018-02-14T15:32:44.425Z,7.27
2018-02-14T15:35:12.098Z,7.60
2018-02-14T15:37:39.712Z,6.67
2018-02-14T15:40:07.328Z,6.93
2018-02-14T15:42:34.956Z,8.10
2018-02-14T15:45:02.561Z,8.57
2018-02-14T15:47:30.188Z,8.10
2018-02-14T15:49:57.894Z,8.13
2018-02-14T15:52:25.558Z,8.70
2018-02-14T15:54:53.199Z,9.10
2018-02-14T15:57:20.814Z,8.33
2018-02-14T15:59:48.403Z,8.10
2018-02-14T16:02:16.763Z,8.43
2018-02-14T16:04:44.391Z,9.00
2018-02-14T16:07:12.025Z,9.70
2018-02-14T16:09:39.641Z,10.13
2018-02-14T16:12:07.282Z,10.60
2018-02-14T16:14:34.901Z,10.27
2018-02-14T16:17:02.519Z,9.50
2018-02-14T16:19:30.167Z,10.63
2018-02-14T16:21:57.836Z,10.63
2018-02-14T16:24:25.426Z,10.30
2018-02-14T16:26:53.154Z,10.47
2018-02-14T16:29:20.864Z,9.67
2018-02-14T16:31:48.456Z,9.53
2018-02-14T16:34:16.080Z,10.50
2018-02-14T16:36:43.682Z,9.97
2018-02-14T16:39:11.264Z,9.53
2018-02-14T16:41:38.865Z,9.63
2018-02-14T16:44:06.437Z,9.53
2018-02-14T16:46:34.096Z,9.23
2018-02-14T16:49:01.727Z,9.30
2018-02-14T16:51:29.343Z,10.03
2018-02-14T16:53:56.955Z,10.43
2018-02-14T16:56:24.592Z,9.27
2018-02-14T16:58:53.071Z,9.57
2018-02-14T17:01:20.715Z,9.40
2018-02-14T17:03:48.737Z,9.33
2018-02-14T17:06:16.343Z,9.00
2018-02-14T17:08:45.370Z,9.13
2018-02-14T17:11:13.052Z,9.23
2018-02-14T17:13:40.644Z,9.97
2018-02-14T17:16:08.231Z,10.60
2018-02-14T17:18:35.890Z,9.43
2018-02-14T17:21:04.253Z,11.83
2018-02-14T17:23:31.870Z,12.00
2018-02-14T17:25:59.589Z,10.27
2018-02-14T17:28:28.035Z,9.20
2018-02-14T17:30:55.646Z,9.67
2018-02-14T17:33:24.025Z,9.20
2018-02-14T17:35:51.637Z,9.50
2018-02-14T17:38:19.245Z,10.03
2018-02-14T17:40:47.057Z,9.17
2018-02-14T17:43:16.029Z,9.70
2018-02-14T17:45:43.637Z,8.83
2018-02-14T17:48:11.248Z,8.90
2018-02-14T17:50:38.908Z,9.57
2018-02-14T17:53:06.462Z,9.33
2018-02-14T17:55:34.190Z,9.20
2018-02-14T17:58:01.778Z,9.23
2018-02-14T18:00:29.422Z,9.20
2018-02-14T18:02:57.050Z,9.90
2018-02-14T18:05:24.644Z,9.47
2018-02-14T18:07:52.314Z,9.47
2018-02-14T18:10:19.925Z,9.83
2018-02-14T18:12:47.544Z,9.60
2018-02-14T18:15:15.160Z,9.07
2018-02-14T18:17:43.338Z,10.30
2018-02-14T18:20:10.961Z,9.93
2018-02-14T18:22:38.563Z,10.47
2018-02-14T18:25:06.171Z,10.03
2018-02-14T18:27:34.567Z,11.53
2018-02-14T18:30:02.140Z,10.80
2018-02-14T18:32:29.783Z,8.07
2018-02-14T18:34:58.152Z,9.23
2018-02-14T18:37:25.736Z,8.10
2018-02-14T18:39:53.324Z,7.70
2018-02-14T18:42:20.935Z,7.67
2018-02-14T18:44:48.568Z,8.23
2018-02-14T18:47:16.170Z,7.53
2018-02-14T18:49:43.774Z,8.40
2018-02-14T18:52:11.384Z,8.33
2018-02-14T18:54:38.958Z,7.53
2018-02-14T18:57:06.523Z,7.30
2018-02-14T18:59:34.162Z,7.67
2018-02-14T19:02:01.754Z,7.20
2018-02-14T19:04:30.979Z,7.57
2018-02-14T19:06:58.628Z,6.83
2018-02-14T19:09:27.087Z,7.23
2018-02-14T19:11:55.190Z,7.97
2018-02-14T19:14:22.772Z,7.40
2018-02-14T19:16:51.212Z,7.37
2018-02-14T19:19:18.792Z,7.47
2018-02-14T19:21:46.380Z,8.93
2018-02-14T19:24:14.682Z,7.70
2018-02-14T19:26:43.028Z,8.60
2018-02-14T19:29:11.233Z,8.20
2018-02-14T19:31:38.856Z,8.30
2018-02-14T19:34:06.426Z,8.53
2018-02-14T19:36:34.050Z,8.33
2018-02-14T19:39:01.617Z,8.23
2018-02-14T19:41:29.185Z,9.40
2018-02-14T19:43:56.842Z,8.90
2018-02-14T19:46:24.437Z,9.20
2018-02-14T19:48:52.049Z,9.37
2018-02-14T19:51:19.691Z,9.43
2018-02-14T19:53:47.824Z,9.10
2018-02-14T19:56:15.425Z,14.37
2018-02-14T19:58:43.047Z,10.80
2018-02-14T20:01:11.431Z,9.37
2018-02-14T20:03:39.020Z,10.87
2018-02-14T20:06:06.642Z,10.13
2018-02-14T20:08:34.227Z,11.27
2018-02-14T20:11:04.578Z,10.60
2018-02-14T20:13:32.202Z,9.80
2018-02-14T20:16:00.564Z,11.27
2018-02-14T20:18:28.188Z,10.80
2018-02-14T20:20:55.787Z,10.40
2018-02-14T20:23:23.479Z,10.30
2018-02-14T20:25:51.202Z,11.07
2018-02-14T20:28:18.782Z,10.10
2018-02-14T20:30:47.347Z,10.60
2018-02-14T20:33:14.977Z,10.33
2018-02-14T20:35:43.331Z,10.07
2018-02-14T20:38:12.835Z,11.13
2018-02-14T20:40:41.263Z,10.13
2018-02-14T20:43:09.770Z,11.33
2018-02-14T20:45:37.392Z,10.43
2018-02-14T20:48:05.032Z,10.33
2018-02-14T20:50:33.481Z,10.83
2018-02-14T20:53:02.132Z,9.70
2018-02-14T20:55:29.715Z,11.30
2018-02-14T20:57:59.468Z,10.63
2018-02-14T21:00:27.072Z,11.23
2018-02-14T21:02:55.500Z,10.40
2018-02-14T21:05:23.116Z,10.47
2018-02-14T21:07:50.775Z,10.00
2018-02-14T21:10:18.413Z,10.27
2018-02-14T21:12:46.112Z,11.23
2018-02-14T21:15:13.771Z,11.50
2018-02-14T21:17:41.365Z,10.27
2018-02-14T21:20:09.743Z,10.57
2018-02-14T21:22:37.388Z,10.87
2018-02-14T21:25:04.980Z,10.40
2018-02-14T21:27:33.328Z,10.33
2018-02-14T21:30:00.941Z,10.53
2018-02-14T21:32:29.353Z,10.37
2018-02-14T21:34:57.704Z,10.23
2018-02-14T21:37:25.332Z,10.23
2018-02-14T21:39:53.760Z,10.80
2018-02-14T21:42:22.102Z,10.57
2018-02-14T21:44:49.727Z,11.37
2018-02-14T21:47:17.370Z,11.00
2018-02-14T21:49:44.982Z,10.40
2018-02-14T21:52:12.627Z,9.90
2018-02-14T21:54:40.281Z,10.90
2018-02-14T21:57:07.878Z,10.83
2018-02-14T21:59:35.558Z,10.13
2018-02-14T22:02:03.148Z,9.83
2018-02-14T22:04:31.653Z,10.03
2018-02-14T22:06:59.251Z,9.67
2018-02-14T22:09:26.965Z,9.77
2018-02-14T22:11:55.373Z,9.17
2018-02-14T22:14:23.732Z,9.67
2018-02-14T22:16:52.559Z,9.87
2018-02-14T22:19:20.141Z,9.80
2018-02-14T22:21:47.756Z,10.00
2018-02-14T22:24:15.344Z,9.70
2018-02-14T22:26:43.703Z,9.23
2018-02-14T22:29:11.300Z,9.27
2018-02-14T22:31:38.876Z,9.13
2018-02-14T22:34:07.317Z,9.73
2018-02-14T22:36:34.932Z,10.03
2018-02-14T22:39:03.392Z,9.83
2018-02-14T22:41:31.761Z,9.80
2018-02-14T22:44:00.184Z,9.47
2018-02-14T22:46:27.860Z,10.20
2018-02-14T22:48:55.455Z,9.37
2018-02-14T22:51:23.037Z,10.53
2018-02-14T22:53:51.410Z,9.87
2018-02-14T22:56:19.823Z,10.07
2018-02-14T22:58:47.440Z,9.07
2018-02-14T23:01:15.884Z,10.50
2018-02-14T23:03:43.489Z,9.20
2018-02-14T23:06:11.098Z,9.17
2018-02-14T23:08:38.666Z,9.20
2018-02-14T23:11:07.041Z,9.60
2018-02-14T23:13:36.134Z,9.43
2018-02-14T23:16:04.514Z,9.83
2018-02-14T23:18:32.162Z,9.43
2018-02-14T23:20:59.771Z,9.60
2018-02-14T23:23:27.352Z,9.63
2018-02-14T23:25:54.952Z,9.40
2018-02-14T23:28:23.053Z,9.80
2018-02-14T23:30:50.619Z,9.13
2018-02-14T23:33:18.243Z,10.00
2018-02-14T23:35:45.829Z,9.60
2018-02-14T23:38:13.472Z,10.40
2018-02-14T23:40:41.058Z,9.37
2018-02-14T23:43:08.641Z,9.17
2018-02-14T23:45:36.234Z,9.27
2018-02-14T23:48:03.831Z,9.40
2018-02-14T23:50:31.398Z,9.43
2018-02-14T23:52:59.014Z,10.03
2018-02-14T23:55:27.372Z,9.67
2018-02-14T23:57:54.934Z,9.57
